Terminal Aerodrome Forecast
Issued by NWS Sioux Falls, SD

Home | Current Version | Previous Version | Text Only | Print | Product List | Glossary On
Versions: 1 2 3 4 5 6 7 8 9 10 11 12 13 14 15 16 17 18 19 20 21 22 23 24 25 26 27 28
000
FTUS43 KFSD 301140
TAFFSD
TAF
KFSD 301140Z 3012/3112 33008KT P6SM OVC008
      TEMPO 3012/3014 5SM BR
     FM301500 34008KT P6SM OVC012
     FM301600 35004KT P6SM BKN022
     FM301800 VRB04KT P6SM SCT030
     FM310000 13008KT P6SM SCT070
     FM310700 15012KT P6SM BKN090=

USA.gov is the U.S. government's official web portal to all federal, state and local government web resources and services.